Time,TemperatureF,DewpointF,PressureIn,WindDirection,WindDirectionDegrees,WindSpeedMPH,WindSpeedGustMPH,Humidity,HourlyPrecipIn,Conditions,Clouds,dailyrainin,SoftwareType,DateUTC
2013-05-15 00:00:00,70.7,53.2,29.99,North,355,0.0,2.0,54,0.00,,,0.00,Wunderground v.1.13,2013-05-15 04:00:00,
2013-05-15 00:10:00,70.7,53.2,29.99,WNW,284,0.0,2.0,54,0.00,,,0.00,Wunderground v.1.13,2013-05-15 04:10:00,
2013-05-15 00:20:00,70.7,53.2,29.99,NNE,27,0.0,2.0,54,0.00,,,0.00,Wunderground v.1.13,2013-05-15 04:20:00,
2013-05-15 00:30:00,70.7,53.2,29.99,NNW,327,0.0,2.0,54,0.00,,,0.00,Wunderground v.1.13,2013-05-15 04:30:00,
2013-05-15 00:40:00,71.0,53.5,29.99,WSW,247,0.0,2.0,54,0.00,,,0.00,Wunderground v.1.13,2013-05-15 04:40:00,
2013-05-15 00:50:00,71.0,53.5,29.99,West,281,0.0,2.0,54,0.00,,,0.00,Wunderground v.1.13,2013-05-15 04:50:00,
2013-05-15 01:00:00,71.2,53.7,29.99,NE,44,0.0,2.0,54,0.00,,,0.00,Wunderground v.1.13,2013-05-15 05:00:00,
2013-05-15 01:10:00,70.8,53.8,30.00,East,83,0.0,2.0,55,0.00,,,0.00,Wunderground v.1.13,2013-05-15 05:10:00,
2013-05-15 01:20:00,70.7,53.7,30.00,East,83,0.0,2.0,55,0.00,,,0.00,Wunderground v.1.13,2013-05-15 05:20:00,
2013-05-15 01:30:00,70.5,54.0,30.00,NNW,338,0.0,2.0,56,0.00,,,0.00,Wunderground v.1.13,2013-05-15 05:30:00,
2013-05-15 01:40:00,70.3,54.3,30.00,SE,144,0.0,2.0,57,0.00,,,0.00,Wunderground v.1.13,2013-05-15 05:40:00,
2013-05-15 01:50:00,70.0,53.6,30.00,ENE,71,0.0,2.0,56,0.00,,,0.00,Wunderground v.1.13,2013-05-15 05:50:00,
2013-05-15 02:00:00,69.8,53.4,30.00,North,5,0.0,2.0,56,0.00,,,0.00,Wunderground v.1.13,2013-05-15 06:00:00,
2013-05-15 02:10:00,69.8,53.9,30.00,North,5,0.0,2.0,57,0.00,,,0.00,Wunderground v.1.13,2013-05-15 06:10:00,
2013-05-15 02:20:00,69.8,53.9,30.00,North,5,0.0,2.0,57,0.00,,,0.00,Wunderground v.1.13,2013-05-15 06:20:00,
2013-05-15 02:30:00,69.7,53.8,30.00,West,267,0.0,2.0,57,0.00,,,0.00,Wunderground v.1.13,2013-05-15 06:30:00,
2013-05-15 02:40:00,69.7,54.7,30.00,West,271,0.0,2.0,59,0.00,,,0.00,Wunderground v.1.13,2013-05-15 06:40:00,
2013-05-15 02:50:00,69.3,53.9,30.00,West,271,0.0,2.0,58,0.00,,,0.00,Wunderground v.1.13,2013-05-15 06:50:00,
2013-05-15 03:00:00,69.2,53.8,30.01,West,271,0.0,2.0,58,0.00,,,0.00,Wunderground v.1.13,2013-05-15 07:00:00,
2013-05-15 03:10:00,68.8,53.9,30.02,NW,307,0.0,2.0,59,0.00,,,0.00,Wunderground v.1.13,2013-05-15 07:10:00,
2013-05-15 03:20:00,68.7,54.3,30.02,NNW,333,0.0,2.0,60,0.00,,,0.00,Wunderground v.1.13,2013-05-15 07:20:00,
2013-05-15 03:30:00,68.2,54.2,30.00,WNW,293,0.0,2.0,61,0.00,,,0.00,Wunderground v.1.13,2013-05-15 07:30:00,
2013-05-15 03:40:00,68.2,54.2,30.00,WNW,293,0.0,2.0,61,0.00,,,0.00,Wunderground v.1.13,2013-05-15 07:40:00,
2013-05-15 03:50:00,68.0,54.0,30.01,WSW,248,0.0,2.0,61,0.00,,,0.00,Wunderground v.1.13,2013-05-15 07:50:00,
2013-05-15 04:00:00,68.0,54.0,30.01,WSW,248,0.0,2.0,61,0.00,,,0.00,Wunderground v.1.13,2013-05-15 08:00:00,
2013-05-15 04:10:00,68.0,54.0,30.01,WSW,248,0.0,2.0,61,0.00,,,0.00,Wunderground v.1.13,2013-05-15 08:10:00,
2013-05-15 04:20:00,67.7,53.8,30.00,WSW,248,0.0,4.0,61,0.00,,,0.00,Wunderground v.1.13,2013-05-15 08:20:00,
2013-05-15 04:30:00,67.7,53.8,30.00,WSW,248,0.0,4.0,61,0.00,,,0.00,Wunderground v.1.13,2013-05-15 08:30:00,
2013-05-15 04:40:00,67.7,53.8,30.00,WSW,248,0.0,4.0,61,0.00,,,0.00,Wunderground v.1.13,2013-05-15 08:40:00,
2013-05-15 04:50:00,68.5,53.1,30.01,SSW,203,0.0,2.0,58,0.00,,,0.00,Wunderground v.1.13,2013-05-15 08:50:00,
2013-05-15 05:00:00,68.5,53.1,30.01,SSW,203,0.0,2.0,58,0.00,,,0.00,Wunderground v.1.13,2013-05-15 09:00:00,
2013-05-15 05:10:00,68.5,53.1,30.01,SSW,203,0.0,2.0,58,0.00,,,0.00,Wunderground v.1.13,2013-05-15 09:10:00,
2013-05-15 05:20:00,67.2,53.7,30.03,SSW,203,0.0,1.0,62,0.00,,,0.00,Wunderground v.1.13,2013-05-15 09:20:00,
2013-05-15 05:30:00,67.2,53.7,30.03,SSW,203,0.0,1.0,62,0.00,,,0.00,Wunderground v.1.13,2013-05-15 09:30:00,
2013-05-15 05:40:00,67.2,53.7,30.03,SSW,203,0.0,1.0,62,0.00,,,0.00,Wunderground v.1.13,2013-05-15 09:40:00,
2013-05-15 05:50:00,67.0,53.5,30.03,West,270,0.0,2.0,62,0.00,,,0.00,Wunderground v.1.13,2013-05-15 09:50:00,
2013-05-15 06:00:00,67.0,53.5,30.03,West,270,0.0,2.0,62,0.00,,,0.00,Wunderground v.1.13,2013-05-15 10:00:00,
2013-05-15 06:10:00,67.0,53.5,30.03,West,270,0.0,2.0,62,0.00,,,0.00,Wunderground v.1.13,2013-05-15 10:10:00,
2013-05-15 06:20:00,66.7,52.8,30.05,West,270,0.0,1.0,61,0.00,,,0.00,Wunderground v.1.13,2013-05-15 10:20:00,
2013-05-15 06:30:00,66.7,52.8,30.05,West,270,0.0,1.0,61,0.00,,,0.00,Wunderground v.1.13,2013-05-15 10:30:00,
2013-05-15 06:40:00,66.7,52.8,30.05,West,270,0.0,1.0,61,0.00,,,0.00,Wunderground v.1.13,2013-05-15 10:40:00,
2013-05-15 06:50:00,66.2,52.8,30.05,N/A,-737280,0.0,0.0,62,0.00,,,0.00,Wunderground v.1.13,2013-05-15 10:50:00,
2013-05-15 07:00:00,66.2,52.8,30.05,N/A,-737280,0.0,0.0,62,0.00,,,0.00,Wunderground v.1.13,2013-05-15 11:00:00,
2013-05-15 07:10:00,66.2,52.8,30.05,N/A,-737280,0.0,0.0,62,0.00,,,0.00,Wunderground v.1.13,2013-05-15 11:10:00,
2013-05-15 07:20:00,66.7,53.7,30.07,West,270,0.0,1.0,63,0.00,,,0.00,Wunderground v.1.13,2013-05-15 11:20:00,
2013-05-15 07:30:00,66.7,53.7,30.07,West,270,0.0,1.0,63,0.00,,,0.00,Wunderground v.1.13,2013-05-15 11:30:00,
2013-05-15 07:40:00,66.7,53.7,30.07,West,270,0.0,1.0,63,0.00,,,0.00,Wunderground v.1.13,2013-05-15 11:40:00,
2013-05-15 07:50:00,67.3,53.4,30.08,NNW,338,0.0,1.0,61,0.00,,,0.00,Wunderground v.1.13,2013-05-15 11:50:00,
2013-05-15 08:00:00,67.3,53.4,30.08,NNW,338,0.0,1.0,61,0.00,,,0.00,Wunderground v.1.13,2013-05-15 12:00:00,
2013-05-15 08:10:00,67.3,53.4,30.08,NNW,338,0.0,1.0,61,0.00,,,0.00,Wunderground v.1.13,2013-05-15 12:10:00,
2013-05-15 08:20:00,69.8,52.9,30.08,West,270,0.0,1.0,55,0.00,,,0.00,Wunderground v.1.13,2013-05-15 12:20:00,
2013-05-15 08:30:00,69.8,52.9,30.08,West,270,0.0,1.0,55,0.00,,,0.00,Wunderground v.1.13,2013-05-15 12:30:00,
2013-05-15 08:40:00,69.8,52.9,30.08,West,270,0.0,1.0,55,0.00,,,0.00,Wunderground v.1.13,2013-05-15 12:40:00,
2013-05-15 08:50:00,72.2,52.0,30.08,NE,45,0.0,3.0,49,0.00,,,0.00,Wunderground v.1.13,2013-05-15 12:50:00,
2013-05-15 09:00:00,72.2,52.0,30.08,NE,45,0.0,3.0,49,0.00,,,0.00,Wunderground v.1.13,2013-05-15 13:00:00,
2013-05-15 09:10:00,72.2,52.0,30.08,NE,45,0.0,3.0,49,0.00,,,0.00,Wunderground v.1.13,2013-05-15 13:10:00,
2013-05-15 09:20:00,73.8,52.3,30.08,West,270,0.0,5.0,47,0.00,,,0.00,Wunderground v.1.13,2013-05-15 13:20:00,
2013-05-15 09:30:00,73.8,52.3,30.08,West,270,0.0,5.0,47,0.00,,,0.00,Wunderground v.1.13,2013-05-15 13:30:00,
2013-05-15 09:40:00,73.8,52.3,30.08,West,270,0.0,5.0,47,0.00,,,0.00,Wunderground v.1.13,2013-05-15 13:40:00,
2013-05-15 09:50:00,74.8,52.0,30.08,NNW,338,0.0,6.0,45,0.00,,,0.00,Wunderground v.1.13,2013-05-15 13:50:00,
2013-05-15 10:00:00,74.8,52.0,30.08,NNW,338,0.0,6.0,45,0.00,,,0.00,Wunderground v.1.13,2013-05-15 14:00:00,
2013-05-15 10:10:00,74.8,52.0,30.08,NNW,338,0.0,6.0,45,0.00,,,0.00,Wunderground v.1.13,2013-05-15 14:10:00,
2013-05-15 10:20:00,76.9,53.9,30.08,West,270,0.0,4.0,45,0.00,,,0.00,Wunderground v.1.13,2013-05-15 14:20:00,
2013-05-15 10:30:00,76.9,53.9,30.08,West,270,0.0,4.0,45,0.00,,,0.00,Wunderground v.1.13,2013-05-15 14:30:00,
2013-05-15 10:40:00,76.9,53.9,30.08,West,270,0.0,4.0,45,0.00,,,0.00,Wunderground v.1.13,2013-05-15 14:40:00,
2013-05-15 10:50:00,78.2,53.9,30.07,West,270,0.0,3.0,43,0.00,,,0.00,Wunderground v.1.13,2013-05-15 14:50:00,
2013-05-15 11:00:00,78.2,53.9,30.07,West,270,0.0,3.0,43,0.00,,,0.00,Wunderground v.1.13,2013-05-15 15:00:00,
2013-05-15 11:10:00,78.2,53.9,30.07,West,270,0.0,3.0,43,0.00,,,0.00,Wunderground v.1.13,2013-05-15 15:10:00,
2013-05-15 11:20:00,79.7,53.2,30.06,SSW,203,0.0,3.0,40,0.00,,,0.00,Wunderground v.1.13,2013-05-15 15:20:00,
2013-05-15 11:30:00,79.7,53.2,30.06,SSW,203,0.0,3.0,40,0.00,,,0.00,Wunderground v.1.13,2013-05-15 15:30:00,
2013-05-15 11:40:00,79.7,53.2,30.06,SSW,203,0.0,3.0,40,0.00,,,0.00,Wunderground v.1.13,2013-05-15 15:40:00,
2013-05-15 11:50:00,81.5,54.2,30.05,WNW,293,0.0,5.0,39,0.00,,,0.00,Wunderground v.1.13,2013-05-15 15:50:00,
2013-05-15 12:00:00,81.5,54.2,30.05,WNW,293,0.0,5.0,39,0.00,,,0.00,Wunderground v.1.13,2013-05-15 16:00:00,
2013-05-15 12:10:00,81.5,54.2,30.05,WNW,293,0.0,5.0,39,0.00,,,0.00,Wunderground v.1.13,2013-05-15 16:10:00,
2013-05-15 12:20:00,82.3,54.2,30.03,West,270,0.0,7.0,38,0.00,,,0.00,Wunderground v.1.13,2013-05-15 16:20:00,
2013-05-15 12:30:00,82.3,54.2,30.03,West,270,0.0,7.0,38,0.00,,,0.00,Wunderground v.1.13,2013-05-15 16:30:00,
2013-05-15 12:40:00,82.3,54.2,30.03,West,270,0.0,7.0,38,0.00,,,0.00,Wunderground v.1.13,2013-05-15 16:40:00,
2013-05-15 12:50:00,82.5,55.7,30.02,West,270,0.0,4.0,40,0.00,,,0.00,Wunderground v.1.13,2013-05-15 16:50:00,
2013-05-15 13:00:00,82.5,55.7,30.02,West,270,0.0,4.0,40,0.00,,,0.00,Wunderground v.1.13,2013-05-15 17:00:00,
2013-05-15 13:10:00,82.5,55.7,30.02,West,270,0.0,4.0,40,0.00,,,0.00,Wunderground v.1.13,2013-05-15 17:10:00,
2013-05-15 13:20:00,83.1,54.1,30.02,SW,225,0.0,5.0,37,0.00,,,0.00,Wunderground v.1.13,2013-05-15 17:20:00,
2013-05-15 13:30:00,83.1,54.1,30.02,SW,225,0.0,5.0,37,0.00,,,0.00,Wunderground v.1.13,2013-05-15 17:30:00,
2013-05-15 13:40:00,83.1,54.1,30.02,SW,225,0.0,5.0,37,0.00,,,0.00,Wunderground v.1.13,2013-05-15 17:40:00,
2013-05-15 13:50:00,84.2,55.1,30.01,WSW,248,0.0,3.0,37,0.00,,,0.00,Wunderground v.1.13,2013-05-15 17:50:00,
2013-05-15 14:00:00,84.2,55.1,30.01,WSW,248,0.0,3.0,37,0.00,,,0.00,Wunderground v.1.13,2013-05-15 18:00:00,
2013-05-15 14:10:00,84.2,55.1,30.01,WSW,248,0.0,3.0,37,0.00,,,0.00,Wunderground v.1.13,2013-05-15 18:10:00,
2013-05-15 14:20:00,85.2,53.7,30.00,West,270,0.0,4.0,34,0.00,,,0.00,Wunderground v.1.13,2013-05-15 18:20:00,
2013-05-15 14:30:00,85.2,53.7,30.00,West,270,0.0,4.0,34,0.00,,,0.00,Wunderground v.1.13,2013-05-15 18:30:00,
2013-05-15 14:40:00,85.2,53.7,30.00,West,270,0.0,4.0,34,0.00,,,0.00,Wunderground v.1.13,2013-05-15 18:40:00,
2013-05-15 14:50:00,86.4,54.7,29.99,SW,225,0.0,5.0,34,0.00,,,0.00,Wunderground v.1.13,2013-05-15 18:50:00,
2013-05-15 15:00:00,86.4,54.7,29.99,SW,225,0.0,5.0,34,0.00,,,0.00,Wunderground v.1.13,2013-05-15 19:00:00,
2013-05-15 15:10:00,86.4,54.7,29.99,SW,225,0.0,5.0,34,0.00,,,0.00,Wunderground v.1.13,2013-05-15 19:10:00,
2013-05-15 15:20:00,87.1,53.7,29.98,WNW,293,0.0,4.0,32,0.00,,,0.00,Wunderground v.1.13,2013-05-15 19:20:00,
2013-05-15 15:30:00,87.1,53.7,29.98,WNW,293,0.0,4.0,32,0.00,,,0.00,Wunderground v.1.13,2013-05-15 19:30:00,
2013-05-15 15:40:00,87.1,53.7,29.98,WNW,293,0.0,4.0,32,0.00,,,0.00,Wunderground v.1.13,2013-05-15 19:40:00,
2013-05-15 15:50:00,86.6,53.2,29.96,West,270,0.0,4.0,32,0.00,,,0.00,Wunderground v.1.13,2013-05-15 19:50:00,
2013-05-15 16:00:00,86.6,53.2,29.96,West,270,0.0,4.0,32,0.00,,,0.00,Wunderground v.1.13,2013-05-15 20:00:00,
2013-05-15 16:10:00,86.6,53.2,29.96,West,270,0.0,4.0,32,0.00,,,0.00,Wunderground v.1.13,2013-05-15 20:10:00,
2013-05-15 16:20:00,87.5,52.2,29.96,West,270,0.0,9.0,30,0.00,,,0.00,Wunderground v.1.13,2013-05-15 20:20:00,
2013-05-15 16:30:00,87.5,52.2,29.96,West,270,0.0,9.0,30,0.00,,,0.00,Wunderground v.1.13,2013-05-15 20:30:00,
2013-05-15 16:40:00,87.5,52.2,29.96,West,270,0.0,9.0,30,0.00,,,0.00,Wunderground v.1.13,2013-05-15 20:40:00,
2013-05-15 16:50:00,87.3,57.8,29.95,NNW,338,0.0,1.0,37,0.00,,,0.00,Wunderground v.1.13,2013-05-15 20:50:00,
2013-05-15 17:00:00,87.3,57.8,29.95,NNW,338,0.0,1.0,37,0.00,,,0.00,Wunderground v.1.13,2013-05-15 21:00:00,
2013-05-15 17:10:00,87.3,57.8,29.95,NNW,338,0.0,1.0,37,0.00,,,0.00,Wunderground v.1.13,2013-05-15 21:10:00,
2013-05-15 17:20:00,85.6,54.0,29.94,NW,315,0.0,4.0,34,0.00,,,0.00,Wunderground v.1.13,2013-05-15 21:20:00,
2013-05-15 17:30:00,85.6,54.0,29.94,NW,315,0.0,4.0,34,0.00,,,0.00,Wunderground v.1.13,2013-05-15 21:30:00,
2013-05-15 17:40:00,85.6,54.0,29.94,NW,315,0.0,4.0,34,0.00,,,0.00,Wunderground v.1.13,2013-05-15 21:40:00,
2013-05-15 17:50:00,83.5,53.0,29.94,WSW,248,0.0,9.0,35,0.00,,,0.00,Wunderground v.1.13,2013-05-15 21:50:00,
2013-05-15 18:00:00,83.5,53.0,29.94,WSW,248,0.0,9.0,35,0.00,,,0.00,Wunderground v.1.13,2013-05-15 22:00:00,
2013-05-15 18:10:00,83.5,53.0,29.94,WSW,248,0.0,9.0,35,0.00,,,0.00,Wunderground v.1.13,2013-05-15 22:10:00,
2013-05-15 18:20:00,82.3,55.6,29.93,NW,315,0.0,3.0,40,0.00,,,0.00,Wunderground v.1.13,2013-05-15 22:20:00,
2013-05-15 18:30:00,82.3,55.6,29.93,NW,315,0.0,3.0,40,0.00,,,0.00,Wunderground v.1.13,2013-05-15 22:30:00,
2013-05-15 18:40:00,82.3,55.6,29.93,NW,315,0.0,3.0,40,0.00,,,0.00,Wunderground v.1.13,2013-05-15 22:40:00,
2013-05-15 18:50:00,81.0,56.4,29.94,NE,45,0.0,2.0,43,0.00,,,0.00,Wunderground v.1.13,2013-05-15 22:50:00,
2013-05-15 19:00:00,81.0,56.4,29.94,NE,45,0.0,2.0,43,0.00,,,0.00,Wunderground v.1.13,2013-05-15 23:00:00,
2013-05-15 19:10:00,81.0,56.4,29.94,NE,45,0.0,2.0,43,0.00,,,0.00,Wunderground v.1.13,2013-05-15 23:10:00,
2013-05-15 19:20:00,79.3,56.7,29.94,WNW,293,0.0,1.0,46,0.00,,,0.00,Wunderground v.1.13,2013-05-15 23:20:00,
2013-05-15 19:30:00,79.3,56.7,29.94,WNW,293,0.0,1.0,46,0.00,,,0.00,Wunderground v.1.13,2013-05-15 23:30:00,
2013-05-15 19:40:00,79.3,56.7,29.94,WNW,293,0.0,1.0,46,0.00,,,0.00,Wunderground v.1.13,2013-05-15 23:40:00,
2013-05-15 19:50:00,76.9,55.7,29.94,N/A,-737280,0.0,0.0,48,0.00,,,0.00,Wunderground v.1.13,2013-05-15 23:50:00,
2013-05-15 20:00:00,76.9,55.7,29.94,N/A,-737280,0.0,0.0,48,0.00,,,0.00,Wunderground v.1.13,2013-05-16 00:00:00,
2013-05-15 20:10:00,76.9,55.7,29.94,N/A,-737280,0.0,0.0,48,0.00,,,0.00,Wunderground v.1.13,2013-05-16 00:10:00,
2013-05-15 20:20:00,75.3,54.8,29.94,N/A,-737280,0.0,0.0,49,0.00,,,0.00,Wunderground v.1.13,2013-05-16 00:20:00,
2013-05-15 20:30:00,75.3,54.8,29.94,N/A,-737280,0.0,0.0,49,0.00,,,0.00,Wunderground v.1.13,2013-05-16 00:30:00,
2013-05-15 20:40:00,75.3,54.8,29.94,N/A,-737280,0.0,0.0,49,0.00,,,0.00,Wunderground v.1.13,2013-05-16 00:40:00,
2013-05-15 20:50:00,73.9,55.7,29.94,N/A,-737280,0.0,0.0,53,0.00,,,0.00,Wunderground v.1.13,2013-05-16 00:50:00,
2013-05-15 21:00:00,73.9,55.7,29.94,N/A,-737280,0.0,0.0,53,0.00,,,0.00,Wunderground v.1.13,2013-05-16 01:00:00,
2013-05-15 21:10:00,73.9,55.7,29.94,N/A,-737280,0.0,0.0,53,0.00,,,0.00,Wunderground v.1.13,2013-05-16 01:10:00,
2013-05-15 21:20:00,72.4,54.8,29.94,N/A,-737280,0.0,0.0,54,0.00,,,0.00,Wunderground v.1.13,2013-05-16 01:20:00,
2013-05-15 21:30:00,72.4,54.8,29.94,N/A,-737280,0.0,0.0,54,0.00,,,0.00,Wunderground v.1.13,2013-05-16 01:30:00,
2013-05-15 21:40:00,72.4,54.8,29.94,N/A,-737280,0.0,0.0,54,0.00,,,0.00,Wunderground v.1.13,2013-05-16 01:40:00,
2013-05-15 21:50:00,71.0,58.2,29.95,N/A,-737280,0.0,0.0,64,0.00,,,0.00,Wunderground v.1.13,2013-05-16 01:50:00,
2013-05-15 22:00:00,71.0,58.2,29.95,N/A,-737280,0.0,0.0,64,0.00,,,0.00,Wunderground v.1.13,2013-05-16 02:00:00,
2013-05-15 22:10:00,71.0,58.2,29.95,N/A,-737280,0.0,0.0,64,0.00,,,0.00,Wunderground v.1.13,2013-05-16 02:10:00,
2013-05-15 22:20:00,70.3,56.7,29.95,N/A,-737280,0.0,0.0,62,0.00,,,0.00,Wunderground v.1.13,2013-05-16 02:20:00,
2013-05-15 22:30:00,70.3,56.7,29.95,N/A,-737280,0.0,0.0,62,0.00,,,0.00,Wunderground v.1.13,2013-05-16 02:30:00,
2013-05-15 22:40:00,70.3,56.7,29.95,N/A,-737280,0.0,0.0,62,0.00,,,0.00,Wunderground v.1.13,2013-05-16 02:40:00,
2013-05-15 22:50:00,70.3,55.8,29.96,N/A,-737280,0.0,0.0,60,0.00,,,0.00,Wunderground v.1.13,2013-05-16 02:50:00,
2013-05-15 23:00:00,70.3,55.8,29.96,N/A,-737280,0.0,0.0,60,0.00,,,0.00,Wunderground v.1.13,2013-05-16 03:00:00,
2013-05-15 23:10:00,70.3,55.8,29.96,N/A,-737280,0.0,0.0,60,0.00,,,0.00,Wunderground v.1.13,2013-05-16 03:10:00,
2013-05-15 23:20:00,68.5,57.5,29.96,N/A,-737280,0.0,0.0,68,0.00,,,0.00,Wunderground v.1.13,2013-05-16 03:20:00,
2013-05-15 23:30:00,68.5,57.5,29.96,N/A,-737280,0.0,0.0,68,0.00,,,0.00,Wunderground v.1.13,2013-05-16 03:30:00,
2013-05-15 23:40:00,68.5,57.5,29.96,N/A,-737280,0.0,0.0,68,0.00,,,0.00,Wunderground v.1.13,2013-05-16 03:40:00,
2013-05-15 23:50:00,66.8,56.3,29.96,N/A,-737280,0.0,0.0,69,0.00,,,0.00,Wunderground v.1.13,2013-05-16 03:50:00,